createdAt,value
2023-05-19T00:02:27.421Z,95201.41
2023-05-19T00:04:54.924Z,95219.44
2023-05-19T00:07:28.793Z,95216.56
2023-05-19T00:09:56.608Z,95231.28
2023-05-19T00:12:24.006Z,95185.50
2023-05-19T00:14:51.101Z,95195.66
2023-05-19T00:17:18.224Z,95145.81
2023-05-19T00:19:45.326Z,95225.38
2023-05-19T00:22:13.294Z,95228.25
2023-05-19T00:24:40.301Z,95204.16
2023-05-19T00:27:07.086Z,95199.44
2023-05-19T00:29:34.904Z,95192.34
2023-05-19T00:32:01.721Z,95129.34
2023-05-19T00:34:28.689Z,95215.97
2023-05-19T00:36:55.862Z,95180.03
2023-05-19T00:39:22.718Z,95211.56
2023-05-19T00:41:49.544Z,95125.19
2023-05-19T00:44:16.281Z,95210.78
2023-05-19T00:46:43.865Z,95208.03
2023-05-19T00:49:10.756Z,95208.03
2023-05-19T00:51:37.523Z,95205.00
2023-05-19T00:54:04.631Z,95152.25
2023-05-19T00:56:31.924Z,95200.44
2023-05-19T00:58:59.457Z,95150.59
2023-05-19T01:01:27.179Z,95161.50
2023-05-19T01:03:56.817Z,95196.94
2023-05-19T01:06:23.921Z,95209.34
2023-05-19T01:08:51.988Z,95199.00
2023-05-19T01:11:18.899Z,95203.13
2023-05-19T01:13:46.150Z,95201.41
2023-05-19T01:16:19.519Z,95207.00
2023-05-19T01:19:11.080Z,95205.97
2023-05-19T01:22:06.934Z,95205.78
2023-05-19T01:25:03.259Z,95207.88
2023-05-19T01:28:26.450Z,95201.34
2023-05-19T01:30:57.662Z,95221.16
2023-05-19T01:33:25.200Z,95193.53
2023-05-19T01:35:54.069Z,95118.16
2023-05-19T01:38:22.063Z,95212.84
2023-05-19T01:40:50.336Z,95186.44
2023-05-19T01:43:22.090Z,95174.78
2023-05-19T01:45:49.209Z,95210.88
2023-05-19T01:48:16.560Z,95211.47
2023-05-19T01:50:43.452Z,95211.63
2023-05-19T01:53:14.313Z,95197.38
2023-05-19T01:55:49.753Z,95152.72
2023-05-19T01:58:31.541Z,95214.16
2023-05-19T02:01:26.637Z,95214.47
2023-05-19T02:04:03.490Z,95212.59
2023-05-19T02:06:40.921Z,95215.78
2023-05-19T02:09:41.417Z,95212.59
2023-05-19T02:12:29.022Z,95155.84
2023-05-19T02:15:08.225Z,95223.09
2023-05-19T02:17:38.461Z,95214.63
2023-05-19T02:20:06.893Z,95207.03
2023-05-19T02:26:49.750Z,95232.81
2023-05-19T02:29:42.290Z,95224.69
2023-05-19T02:35:14.008Z,95236.53
2023-05-19T02:38:04.488Z,95193.75
2023-05-19T02:40:31.500Z,95206.09
2023-05-19T02:42:58.439Z,95191.09
2023-05-19T02:45:25.500Z,95229.44
2023-05-19T02:47:52.508Z,95225.34
2023-05-19T02:50:19.535Z,95233.91
2023-05-19T02:52:46.372Z,95224.25
2023-05-19T02:55:17.138Z,95149.47
2023-05-19T02:57:44.150Z,95236.59
2023-05-19T03:00:11.502Z,95214.63
2023-05-19T03:02:38.429Z,95192.34
2023-05-19T03:05:06.004Z,95220.22
2023-05-19T03:07:34.044Z,95223.13
2023-05-19T03:10:03.969Z,95233.00
2023-05-19T03:12:31.787Z,95214.72
2023-05-19T03:14:59.784Z,95211.19
2023-05-19T03:17:26.763Z,95196.03
2023-05-19T03:19:53.704Z,95230.72
2023-05-19T03:22:21.493Z,95190.03
2023-05-19T03:24:51.384Z,95221.56
2023-05-19T03:27:19.370Z,95192.97
2023-05-19T03:29:46.385Z,95174.97
2023-05-19T03:32:13.345Z,95234.31
2023-05-19T03:34:40.452Z,95224.44
2023-05-19T03:37:07.913Z,95240.59
2023-05-19T03:39:35.315Z,95237.22
2023-05-19T03:42:02.255Z,95233.66
2023-05-19T03:44:29.583Z,95184.44
2023-05-19T03:46:56.817Z,95242.09
2023-05-19T03:49:23.748Z,95247.91
2023-05-19T03:51:50.756Z,95241.56
2023-05-19T03:54:17.600Z,95252.16
2023-05-19T03:56:44.589Z,95253.84
2023-05-19T03:59:12.381Z,95185.19
2023-05-19T04:01:39.652Z,95264.09
2023-05-19T04:04:06.526Z,95264.88
2023-05-19T04:06:34.052Z,95261.81
2023-05-19T04:09:04.045Z,95204.53
2023-05-19T04:11:31.370Z,95240.63
2023-05-19T04:14:02.573Z,95269.91
2023-05-19T04:16:32.399Z,95224.75
2023-05-19T04:19:15.777Z,95277.16
2023-05-19T04:21:42.751Z,95275.25
2023-05-19T04:24:16.329Z,95265.56
2023-05-19T04:26:47.462Z,95222.31
2023-05-19T04:29:18.383Z,95236.78
2023-05-19T04:31:46.076Z,95231.41
2023-05-19T04:34:15.041Z,95284.19
2023-05-19T04:37:01.540Z,95280.97
2023-05-19T04:39:57.076Z,95289.94
2023-05-19T04:42:29.554Z,95279.63
2023-05-19T04:45:19.811Z,95278.53
2023-05-19T04:47:49.366Z,95168.56
2023-05-19T04:50:31.045Z,95255.56
2023-05-19T04:52:59.991Z,95282.00
2023-05-19T04:55:30.949Z,95284.59
2023-05-19T04:57:58.688Z,95227.81
2023-05-19T05:00:26.149Z,95250.19
2023-05-19T05:02:54.032Z,95231.66
2023-05-19T05:05:23.572Z,95281.16
2023-05-19T05:07:58.332Z,95285.63
2023-05-19T05:10:33.960Z,95292.03
2023-05-19T05:13:02.066Z,95289.78
2023-05-19T05:15:29.949Z,95275.44
2023-05-19T05:18:00.510Z,95207.94
2023-05-19T05:20:27.987Z,95276.63
2023-05-19T05:22:55.220Z,95297.03
2023-05-19T05:25:22.862Z,95287.03
2023-05-19T05:27:50.100Z,95269.19
2023-05-19T05:30:17.654Z,95286.31
2023-05-19T05:32:46.879Z,95213.09
2023-05-19T05:35:15.840Z,95283.84
2023-05-19T05:37:42.804Z,95265.38
2023-05-19T05:40:10.591Z,95274.63
2023-05-19T05:42:38.581Z,95293.22
2023-05-19T05:45:06.658Z,95271.41
2023-05-19T05:47:34.047Z,95221.16
2023-05-19T05:50:01.813Z,95264.13
2023-05-19T05:52:31.007Z,95302.84
2023-05-19T05:54:58.548Z,95228.34
2023-05-19T05:57:25.748Z,95300.13
2023-05-19T05:59:52.735Z,95311.22
2023-05-19T06:02:19.857Z,95235.66
2023-05-19T06:04:46.747Z,95299.00
2023-05-19T06:07:13.789Z,95285.34
2023-05-19T06:09:40.883Z,95299.22
2023-05-19T06:12:08.227Z,95286.91
2023-05-19T06:14:35.213Z,95304.56
2023-05-19T06:17:02.429Z,95312.19
2023-05-19T06:19:29.289Z,95293.03
2023-05-19T06:21:56.920Z,95330.72
2023-05-19T06:24:24.022Z,95296.09
2023-05-19T06:26:51.806Z,95308.31
2023-05-19T06:29:18.836Z,95301.03
2023-05-19T06:31:46.727Z,95319.59
2023-05-19T06:34:18.150Z,95276.22
2023-05-19T06:36:45.249Z,95288.03
2023-05-19T06:39:12.291Z,95313.53
2023-05-19T06:41:39.166Z,95300.47
2023-05-19T06:44:09.047Z,95329.91
2023-05-19T06:46:36.455Z,95317.91
2023-05-19T06:49:03.372Z,95318.25
2023-05-19T06:51:30.293Z,95288.81
2023-05-19T06:53:58.485Z,95300.63
2023-05-19T06:56:25.647Z,95317.97
2023-05-19T06:58:52.362Z,95290.16
2023-05-19T07:01:19.386Z,95294.13
2023-05-19T07:03:46.921Z,95334.78
2023-05-19T07:06:14.063Z,95338.28
2023-05-19T07:08:40.993Z,95321.47
2023-05-19T07:11:08.460Z,95330.50
2023-05-19T07:13:35.639Z,95328.28
2023-05-19T07:16:02.459Z,95335.78
2023-05-19T07:18:31.876Z,95334.03
2023-05-19T07:20:59.819Z,95335.44
2023-05-19T07:23:26.776Z,95328.84
2023-05-19T07:25:56.858Z,95333.00
2023-05-19T07:28:25.281Z,95332.91
2023-05-19T07:30:53.326Z,95337.03
2023-05-19T07:33:20.548Z,95344.75
2023-05-19T07:35:48.198Z,95325.78
2023-05-19T07:38:15.256Z,95340.06
2023-05-19T07:40:42.093Z,95322.91
2023-05-19T07:43:08.995Z,95333.63
2023-05-19T07:45:37.415Z,95305.06
2023-05-19T07:48:12.576Z,95318.03
2023-05-19T07:50:39.713Z,95344.19
2023-05-19T07:53:47.666Z,95264.97
2023-05-19T07:56:17.118Z,95294.84
2023-05-19T07:58:47.343Z,95347.53
2023-05-19T08:01:19.635Z,95341.00
2023-05-19T08:03:47.640Z,95242.66
2023-05-19T08:06:17.554Z,95292.78
2023-05-19T08:08:45.198Z,95273.78
2023-05-19T08:11:14.084Z,95324.91
2023-05-19T08:13:43.453Z,95331.81
2023-05-19T08:16:13.425Z,95320.94
2023-05-19T08:18:41.421Z,95338.16
2023-05-19T08:21:08.681Z,95303.56
2023-05-19T08:23:37.458Z,95321.78
2023-05-19T08:26:10.080Z,95333.19
2023-05-19T08:28:37.263Z,95341.78
2023-05-19T08:31:06.664Z,95327.34
2023-05-19T08:33:36.147Z,95305.19
2023-05-19T08:36:03.244Z,95254.31
2023-05-19T08:38:31.782Z,95251.28
2023-05-19T08:40:58.934Z,95321.53
2023-05-19T08:43:30.232Z,95312.59
2023-05-19T08:46:00.607Z,95261.56
2023-05-19T08:48:33.051Z,95310.13
2023-05-19T08:51:37.462Z,95300.88
2023-05-19T08:54:15.428Z,95315.34
2023-05-19T08:56:45.818Z,95231.31
2023-05-19T08:59:18.162Z,95282.72
2023-05-19T09:01:46.526Z,95279.88
2023-05-19T09:04:14.213Z,95296.97
2023-05-19T09:06:41.431Z,95251.13
2023-05-19T09:09:09.329Z,95311.03
2023-05-19T09:11:38.024Z,95246.63
2023-05-19T09:14:05.832Z,95183.72
2023-05-19T09:16:34.164Z,95292.22
2023-05-19T09:19:01.516Z,95300.25
2023-05-19T09:21:32.061Z,95230.50
2023-05-19T09:24:04.446Z,95295.63
2023-05-19T09:26:42.581Z,95268.31
2023-05-19T09:29:14.822Z,95288.53
2023-05-19T09:31:52.051Z,95241.53
2023-05-19T09:34:19.974Z,95274.03
2023-05-19T09:36:51.914Z,95222.19
2023-05-19T09:39:23.073Z,95285.41
2023-05-19T09:41:58.774Z,95250.69
2023-05-19T09:44:32.290Z,95250.50
2023-05-19T09:47:00.186Z,95248.75
2023-05-19T09:49:29.878Z,95278.94
2023-05-19T09:52:04.242Z,95283.53
2023-05-19T09:54:32.685Z,95275.78
2023-05-19T09:57:01.028Z,95268.94
2023-05-19T09:59:32.859Z,95234.91
2023-05-19T10:02:02.241Z,95215.00
2023-05-19T10:04:35.207Z,95253.94
2023-05-19T10:07:05.844Z,95234.28
2023-05-19T10:09:33.611Z,95223.44
2023-05-19T10:12:00.828Z,95264.22
2023-05-19T10:14:29.256Z,95258.97
2023-05-19T10:16:58.681Z,95259.34
2023-05-19T10:19:28.486Z,95267.31
2023-05-19T10:21:56.264Z,95246.59
2023-05-19T10:24:23.020Z,95200.25
2023-05-19T10:27:03.925Z,95270.66
2023-05-19T10:29:34.931Z,95217.50
2023-05-19T10:32:07.098Z,95203.25
2023-05-19T10:34:52.839Z,95257.47
2023-05-19T10:37:45.128Z,95244.25
2023-05-19T10:40:30.600Z,95257.63
2023-05-19T10:43:03.089Z,95257.22
2023-05-19T10:45:36.576Z,95219.41
2023-05-19T10:48:03.650Z,95236.16
2023-05-19T10:50:37.802Z,95245.47
2023-05-19T10:53:04.681Z,95213.66
2023-05-19T10:55:56.401Z,95249.78
2023-05-19T10:58:46.564Z,95209.78
2023-05-19T11:01:14.798Z,95214.19
2023-05-19T11:03:52.586Z,95244.34
2023-05-19T11:06:38.371Z,95253.34
2023-05-19T11:09:17.932Z,95197.63
2023-05-19T11:11:51.510Z,95234.06
2023-05-19T11:14:20.588Z,95251.34
2023-05-19T11:16:52.072Z,95242.03
2023-05-19T11:19:29.656Z,95187.09
2023-05-19T11:21:58.105Z,95236.28
2023-05-19T11:24:50.277Z,95241.88
2023-05-19T11:27:31.450Z,95230.00
2023-05-19T11:29:59.725Z,95230.47
2023-05-19T11:32:31.242Z,95228.66
2023-05-19T11:35:00.635Z,95236.69
2023-05-19T11:37:31.503Z,95229.44
2023-05-19T11:40:01.461Z,95220.75
2023-05-19T11:42:28.628Z,95218.81
2023-05-19T11:44:56.420Z,95232.66
2023-05-19T11:47:23.510Z,95185.16
2023-05-19T11:49:55.100Z,95225.84
2023-05-19T11:52:23.307Z,95230.97
2023-05-19T11:54:50.404Z,95230.97
2023-05-19T11:57:20.323Z,95175.63
2023-05-19T11:59:49.852Z,95175.91
2023-05-19T12:02:22.726Z,95227.47
2023-05-19T12:04:49.858Z,95191.47
2023-05-19T12:07:18.563Z,95237.34
2023-05-19T12:09:48.362Z,95234.91
2023-05-19T12:12:20.742Z,95218.81
2023-05-19T12:14:49.520Z,95157.28
2023-05-19T12:17:18.142Z,95197.91
2023-05-19T12:19:47.267Z,95261.13
2023-05-19T12:22:15.573Z,95280.59
2023-05-19T12:24:43.797Z,95293.63
2023-05-19T12:27:29.108Z,95288.22
2023-05-19T12:29:59.488Z,95233.00
2023-05-19T12:32:28.990Z,95219.50
2023-05-19T12:34:56.828Z,95234.19
2023-05-19T12:37:27.803Z,95271.13
2023-05-19T12:39:56.383Z,95284.38
2023-05-19T12:42:24.335Z,95224.81
2023-05-19T12:44:52.714Z,95256.38
2023-05-19T12:47:20.572Z,95227.41
2023-05-19T12:49:57.446Z,95258.81
2023-05-19T12:52:24.309Z,95252.72
2023-05-19T12:54:59.291Z,95245.09
2023-05-19T12:57:27.380Z,95217.94
2023-05-19T13:00:00.661Z,95244.88
2023-05-19T13:02:27.771Z,95222.91
2023-05-19T13:04:54.928Z,95251.00
2023-05-19T13:07:21.986Z,95244.50
2023-05-19T13:09:48.833Z,95190.59
2023-05-19T13:12:16.156Z,95230.47
2023-05-19T13:14:43.650Z,95229.47
2023-05-19T13:17:10.513Z,95238.13
2023-05-19T13:19:37.707Z,95235.31
2023-05-19T13:22:04.850Z,95200.47
2023-05-19T13:24:32.370Z,95211.94
2023-05-19T13:26:59.405Z,95188.19
2023-05-19T13:29:28.379Z,95237.50
2023-05-19T13:31:55.371Z,95237.25
2023-05-19T13:34:22.412Z,95162.44
2023-05-19T13:36:49.686Z,95215.94
2023-05-19T13:39:18.913Z,95233.47
2023-05-19T13:41:45.725Z,95223.78
2023-05-19T13:44:12.706Z,95227.19
2023-05-19T13:46:45.604Z,95218.41
2023-05-19T13:49:13.283Z,95225.91
2023-05-19T13:51:43.600Z,95218.47
2023-05-19T13:54:10.778Z,95186.53
2023-05-19T13:56:37.496Z,95220.84
2023-05-19T13:59:04.330Z,95200.53
2023-05-19T14:01:31.516Z,95233.41
2023-05-19T14:03:58.414Z,95227.38
2023-05-19T14:06:25.392Z,95220.50
2023-05-19T14:08:52.176Z,95192.22
2023-05-19T14:11:20.236Z,95188.06
2023-05-19T14:13:52.328Z,95225.09
2023-05-19T14:16:20.593Z,95203.13
2023-05-19T14:18:47.666Z,95232.53
2023-05-19T14:21:15.120Z,95211.31
2023-05-19T14:23:42.183Z,95221.91
2023-05-19T14:26:08.991Z,95222.13
2023-05-19T14:28:35.875Z,95208.28
2023-05-19T14:31:03.240Z,95168.66
2023-05-19T14:33:34.892Z,95186.34
2023-05-19T14:36:02.850Z,95204.22
2023-05-19T14:38:30.363Z,95184.72
2023-05-19T14:40:57.255Z,95149.28
2023-05-19T14:43:24.091Z,95220.75
2023-05-19T14:45:51.225Z,95214.19
2023-05-19T14:48:18.476Z,95210.69
2023-05-19T14:50:48.154Z,95234.38
2023-05-19T14:53:16.471Z,95219.38
2023-05-19T14:55:43.935Z,95230.16
2023-05-19T14:58:26.957Z,95242.91
2023-05-19T15:00:57.212Z,95244.34
2023-05-19T15:03:29.950Z,95235.88
2023-05-19T15:05:59.290Z,95203.66
2023-05-19T15:08:26.434Z,95249.47
2023-05-19T15:10:53.324Z,95206.22
2023-05-19T15:13:21.648Z,95237.44
2023-05-19T15:15:48.500Z,95250.25
2023-05-19T15:18:18.878Z,95180.34
2023-05-19T15:20:46.600Z,95189.41
2023-05-19T15:23:13.487Z,95243.53
2023-05-19T15:25:40.489Z,95191.16
2023-05-19T15:28:08.369Z,95217.75
2023-05-19T15:30:35.269Z,95198.94
2023-05-19T15:33:02.220Z,95226.09
2023-05-19T15:35:29.475Z,95196.63
2023-05-19T15:37:56.308Z,95241.56
2023-05-19T15:40:24.031Z,95197.00
2023-05-19T15:42:50.864Z,95240.44
2023-05-19T15:45:17.671Z,95233.63
2023-05-19T15:47:45.074Z,95201.03
2023-05-19T15:50:20.786Z,95208.59
2023-05-19T15:52:47.541Z,95202.91
2023-05-19T15:55:14.503Z,95241.56
2023-05-19T15:57:41.460Z,95244.38
2023-05-19T16:00:09.574Z,95175.94
2023-05-19T16:02:36.604Z,95243.09
2023-05-19T16:05:03.531Z,95219.72
2023-05-19T16:07:30.694Z,95150.81
2023-05-19T16:09:57.563Z,95190.63
2023-05-19T16:12:24.786Z,95220.38
2023-05-19T16:14:51.602Z,95199.16
2023-05-19T16:17:19.998Z,95231.53
2023-05-19T16:19:46.611Z,95233.81
2023-05-19T16:22:14.385Z,95239.84
2023-05-19T16:24:41.404Z,95230.88
2023-05-19T16:27:08.203Z,95216.19
2023-05-19T16:29:35.020Z,95204.69
2023-05-19T16:32:01.755Z,95252.31
2023-05-19T16:34:30.616Z,95227.25
2023-05-19T16:36:57.740Z,95222.81
2023-05-19T16:39:24.874Z,95216.56
2023-05-19T16:41:53.004Z,95245.63
2023-05-19T16:44:38.168Z,95223.06
2023-05-19T16:47:05.071Z,95245.84
2023-05-19T16:49:33.610Z,95252.16
2023-05-19T16:52:00.617Z,95252.94
2023-05-19T16:54:28.826Z,95253.97
2023-05-19T16:56:56.296Z,95235.63
2023-05-19T16:59:23.192Z,95238.00
2023-05-19T17:01:50.344Z,95246.84
2023-05-19T17:04:17.290Z,95222.31
2023-05-19T17:06:44.593Z,95259.44
2023-05-19T17:09:12.076Z,95245.19
2023-05-19T17:11:39.197Z,95250.00
2023-05-19T17:14:09.546Z,95258.78
2023-05-19T17:16:37.209Z,95227.97
2023-05-19T17:19:04.459Z,95260.81
2023-05-19T17:21:32.927Z,95255.56
2023-05-19T17:24:00.130Z,95183.59
2023-05-19T17:26:27.804Z,95234.47
2023-05-19T17:28:54.935Z,95271.34
2023-05-19T17:31:21.675Z,95236.72
2023-05-19T17:33:49.203Z,95255.53
2023-05-19T17:36:16.074Z,95271.56
2023-05-19T17:38:42.934Z,95239.47
2023-05-19T17:41:10.371Z,95222.16
2023-05-19T17:43:40.752Z,95279.31
2023-05-19T17:46:07.669Z,95278.81
2023-05-19T17:48:34.574Z,95286.34
2023-05-19T17:51:01.889Z,95290.56
2023-05-19T17:53:30.172Z,95279.78
2023-05-19T17:56:03.137Z,95281.50
2023-05-19T17:58:33.136Z,95291.50
2023-05-19T18:00:59.997Z,95279.75
2023-05-19T18:03:27.392Z,95271.44
2023-05-19T18:05:54.847Z,95265.66
2023-05-19T18:08:22.066Z,95290.25
2023-05-19T18:10:51.843Z,95292.97
2023-05-19T18:13:23.746Z,95212.94
2023-05-19T18:15:52.834Z,95256.66
2023-05-19T18:18:21.977Z,95299.00
2023-05-19T18:20:49.023Z,95252.25
2023-05-19T18:23:15.670Z,95314.28
2023-05-19T18:25:49.519Z,95271.38
2023-05-19T18:28:16.426Z,95313.53
2023-05-19T18:30:45.804Z,95315.81
2023-05-19T18:33:13.336Z,95340.09
2023-05-19T18:35:40.538Z,95326.03
2023-05-19T18:38:07.357Z,95316.25
2023-05-19T18:40:35.005Z,95326.28
2023-05-19T18:43:01.934Z,95317.97
2023-05-19T18:45:28.836Z,95337.00
2023-05-19T18:47:56.536Z,95334.25
2023-05-19T18:50:23.417Z,95286.97
2023-05-19T18:55:48.850Z,95319.88
2023-05-19T18:58:16.078Z,95321.59
2023-05-19T19:00:43.184Z,95331.81
2023-05-19T19:03:12.050Z,95350.63
2023-05-19T19:05:39.542Z,95269.50
2023-05-19T19:08:08.633Z,95331.97
2023-05-19T19:10:39.187Z,95326.88
2023-05-19T19:13:06.356Z,95357.22
2023-05-19T19:15:38.003Z,95332.59
2023-05-19T19:18:08.320Z,95304.53
2023-05-19T19:20:35.375Z,95345.88
2023-05-19T19:23:05.137Z,95342.53
2023-05-19T19:25:34.172Z,95358.78
2023-05-19T19:28:01.726Z,95347.72
2023-05-19T19:30:29.693Z,95315.66
2023-05-19T19:32:57.037Z,95298.50
2023-05-19T19:35:24.140Z,95361.88
2023-05-19T19:37:51.836Z,95332.91
2023-05-19T19:40:18.667Z,95319.91
2023-05-19T19:42:48.463Z,95371.56
2023-05-19T19:45:15.774Z,95382.41
2023-05-19T19:47:55.570Z,95317.91
2023-05-19T19:50:38.972Z,95336.16
2023-05-19T19:53:10.316Z,95323.41
2023-05-19T19:55:37.190Z,95378.06
2023-05-19T19:58:03.883Z,95385.09
2023-05-19T20:00:30.989Z,95392.75
2023-05-19T20:03:04.996Z,95386.06
2023-05-19T20:05:33.003Z,95393.44
2023-05-19T20:07:59.912Z,95392.78
2023-05-19T20:10:27.325Z,95363.47
2023-05-19T20:12:54.441Z,95395.63
2023-05-19T20:15:21.195Z,95401.69
2023-05-19T20:17:53.507Z,95393.75
2023-05-19T20:20:20.504Z,95337.56
2023-05-19T20:22:47.439Z,95355.63
2023-05-19T20:25:14.815Z,95385.88
2023-05-19T20:27:44.616Z,95387.28
2023-05-19T20:30:11.821Z,95406.97
2023-05-19T20:32:39.078Z,95390.31
2023-05-19T20:35:09.533Z,95409.13
2023-05-19T20:37:36.430Z,95397.50
2023-05-19T20:40:03.758Z,95392.00
2023-05-19T20:42:31.276Z,95386.53
2023-05-19T20:44:58.228Z,95374.63
2023-05-19T20:47:25.230Z,95331.09
2023-05-19T20:49:52.011Z,95353.00
2023-05-19T20:52:19.702Z,95381.44
2023-05-19T20:54:46.544Z,95355.56
2023-05-19T20:57:13.396Z,95391.75
2023-05-19T20:59:40.725Z,95383.25
2023-05-19T21:02:07.833Z,95357.75
2023-05-19T21:04:34.897Z,95373.34
2023-05-19T21:07:01.673Z,95389.28
2023-05-19T21:09:28.529Z,95348.00
2023-05-19T21:12:02.476Z,95352.91
2023-05-19T21:17:37.947Z,95403.84
2023-05-19T21:20:06.178Z,95371.63
2023-05-19T21:22:37.051Z,95270.59
2023-05-19T21:25:04.518Z,95399.41
2023-05-19T21:27:52.494Z,95389.28
2023-05-19T21:30:51.666Z,95276.59
2023-05-19T21:33:41.078Z,95387.72
2023-05-19T21:36:17.150Z,95391.13
2023-05-19T21:39:05.495Z,95276.06
2023-05-19T21:41:39.613Z,95295.97
2023-05-19T21:44:07.486Z,95377.63
2023-05-19T21:46:34.824Z,95330.72
2023-05-19T21:49:01.554Z,95390.06
2023-05-19T21:51:29.265Z,95371.19
2023-05-19T21:53:56.422Z,95294.22
2023-05-19T21:56:23.227Z,95370.69
2023-05-19T21:58:50.295Z,95381.69
2023-05-19T22:01:17.079Z,95310.22
2023-05-19T22:03:44.934Z,95343.78
2023-05-19T22:06:11.913Z,95368.06
2023-05-19T22:08:38.846Z,95377.50
2023-05-19T22:11:06.075Z,95384.22
2023-05-19T22:13:34.052Z,95351.91
2023-05-19T22:16:00.831Z,95297.53
2023-05-19T22:18:27.552Z,95373.00
2023-05-19T22:20:54.365Z,95347.97
2023-05-19T22:23:21.126Z,95308.47
2023-05-19T22:25:48.044Z,95333.06
2023-05-19T22:28:15.205Z,95367.91
2023-05-19T22:30:44.640Z,95367.75
2023-05-19T22:33:11.969Z,95347.47
2023-05-19T22:35:38.908Z,95360.16
2023-05-19T22:38:06.012Z,95365.19
2023-05-19T22:40:33.975Z,95357.44
2023-05-19T22:43:00.981Z,95332.78
2023-05-19T22:45:29.429Z,95357.50
2023-05-19T22:47:56.276Z,95386.59
2023-05-19T22:50:23.211Z,95377.03
2023-05-19T22:52:50.026Z,95346.25
2023-05-19T22:55:17.034Z,95370.81
2023-05-19T22:57:43.969Z,95312.94
2023-05-19T23:00:14.065Z,95373.88
2023-05-19T23:02:42.073Z,95323.84
2023-05-19T23:05:09.257Z,95320.34
2023-05-19T23:07:36.327Z,95312.78
2023-05-19T23:10:04.442Z,95350.66
2023-05-19T23:12:31.328Z,95343.06
2023-05-19T23:14:58.069Z,95339.75
2023-05-19T23:17:49.566Z,95304.75
2023-05-19T23:20:35.226Z,95255.50
2023-05-19T23:23:03.904Z,95283.38
2023-05-19T23:25:30.900Z,95326.84
2023-05-19T23:27:57.726Z,95341.41
2023-05-19T23:30:24.494Z,95318.50
2023-05-19T23:32:51.479Z,95274.91
2023-05-19T23:35:18.582Z,95328.06
2023-05-19T23:37:46.047Z,95251.13
2023-05-19T23:40:15.499Z,95215.34
2023-05-19T23:42:44.701Z,95317.91
2023-05-19T23:45:17.439Z,95310.50
